sensor_id;sensor_type;location;lat;lon;timestamp;temperature;humidity
17174;DHT22;8702;48.130;-1.696;2022-07-21T00:01:06;20.80;97.60
17174;DHT22;8702;48.130;-1.696;2022-07-21T00:03:33;20.80;97.60
17174;DHT22;8702;48.130;-1.696;2022-07-21T00:06:01;20.80;97.60
17174;DHT22;8702;48.130;-1.696;2022-07-21T00:08:28;20.70;97.80
17174;DHT22;8702;48.130;-1.696;2022-07-21T00:10:55;20.60;98.00
17174;DHT22;8702;48.130;-1.696;2022-07-21T00:13:22;20.60;98.00
17174;DHT22;8702;48.130;-1.696;2022-07-21T00:15:50;20.70;97.80
17174;DHT22;8702;48.130;-1.696;2022-07-21T00:18:18;20.80;97.80
17174;DHT22;8702;48.130;-1.696;2022-07-21T00:20:45;20.80;97.70
17174;DHT22;8702;48.130;-1.696;2022-07-21T00:23:12;20.90;97.70
17174;DHT22;8702;48.130;-1.696;2022-07-21T00:25:40;20.90;97.70
17174;DHT22;8702;48.130;-1.696;2022-07-21T00:28:07;20.90;97.60
17174;DHT22;8702;48.130;-1.696;2022-07-21T00:30:34;20.90;97.60
17174;DHT22;8702;48.130;-1.696;2022-07-21T00:33:02;20.80;97.60
17174;DHT22;8702;48.130;-1.696;2022-07-21T00:35:29;20.80;97.80
17174;DHT22;8702;48.130;-1.696;2022-07-21T00:37:56;20.70;97.90
17174;DHT22;8702;48.130;-1.696;2022-07-21T00:40:24;20.80;97.80
17174;DHT22;8702;48.130;-1.696;2022-07-21T00:42:51;20.80;97.80
17174;DHT22;8702;48.130;-1.696;2022-07-21T00:45:18;20.80;97.80
17174;DHT22;8702;48.130;-1.696;2022-07-21T00:47:46;20.80;97.80
17174;DHT22;8702;48.130;-1.696;2022-07-21T00:50:16;20.90;97.60
17174;DHT22;8702;48.130;-1.696;2022-07-21T00:52:44;20.90;97.60
17174;DHT22;8702;48.130;-1.696;2022-07-21T00:55:14;20.90;97.70
17174;DHT22;8702;48.130;-1.696;2022-07-21T00:57:42;21.00;97.60
17174;DHT22;8702;48.130;-1.696;2022-07-21T01:00:12;21.00;97.40
17174;DHT22;8702;48.130;-1.696;2022-07-21T01:02:39;21.00;97.40
17174;DHT22;8702;48.130;-1.696;2022-07-21T01:05:09;21.00;97.40
17174;DHT22;8702;48.130;-1.696;2022-07-21T01:07:42;20.90;97.50
17174;DHT22;8702;48.130;-1.696;2022-07-21T01:10:09;20.90;97.60
17174;DHT22;8702;48.130;-1.696;2022-07-21T01:12:37;20.90;97.50
17174;DHT22;8702;48.130;-1.696;2022-07-21T01:15:05;21.00;97.50
17174;DHT22;8702;48.130;-1.696;2022-07-21T01:17:33;21.00;97.40
17174;DHT22;8702;48.130;-1.696;2022-07-21T01:20:03;21.00;97.40
17174;DHT22;8702;48.130;-1.696;2022-07-21T01:22:33;20.90;97.50
17174;DHT22;8702;48.130;-1.696;2022-07-21T01:25:02;20.90;97.50
17174;DHT22;8702;48.130;-1.696;2022-07-21T01:27:29;20.90;97.60
17174;DHT22;8702;48.130;-1.696;2022-07-21T01:29:57;20.80;97.70
17174;DHT22;8702;48.130;-1.696;2022-07-21T01:32:24;20.90;97.60
17174;DHT22;8702;48.130;-1.696;2022-07-21T01:34:52;20.90;97.60
17174;DHT22;8702;48.130;-1.696;2022-07-21T01:37:21;20.90;97.50
17174;DHT22;8702;48.130;-1.696;2022-07-21T01:39:50;20.80;97.60
17174;DHT22;8702;48.130;-1.696;2022-07-21T01:42:35;20.70;97.80
17174;DHT22;8702;48.130;-1.696;2022-07-21T01:45:03;20.70;97.90
17174;DHT22;8702;48.130;-1.696;2022-07-21T01:47:31;20.70;97.80
17174;DHT22;8702;48.130;-1.696;2022-07-21T01:49:58;20.70;97.80
17174;DHT22;8702;48.130;-1.696;2022-07-21T01:52:25;20.80;97.80
17174;DHT22;8702;48.130;-1.696;2022-07-21T01:54:53;20.80;97.70
17174;DHT22;8702;48.130;-1.696;2022-07-21T01:57:20;20.80;97.60
17174;DHT22;8702;48.130;-1.696;2022-07-21T01:59:47;20.70;97.80
17174;DHT22;8702;48.130;-1.696;2022-07-21T02:02:14;20.60;98.20
17174;DHT22;8702;48.130;-1.696;2022-07-21T02:04:46;20.60;97.90
17174;DHT22;8702;48.130;-1.696;2022-07-21T02:07:13;20.60;97.90
17174;DHT22;8702;48.130;-1.696;2022-07-21T02:09:40;20.40;98.00
17174;DHT22;8702;48.130;-1.696;2022-07-21T02:12:09;20.40;98.10
17174;DHT22;8702;48.130;-1.696;2022-07-21T02:14:36;20.40;98.20
17174;DHT22;8702;48.130;-1.696;2022-07-21T02:17:03;20.40;98.10
17174;DHT22;8702;48.130;-1.696;2022-07-21T02:19:30;20.40;98.10
17174;DHT22;8702;48.130;-1.696;2022-07-21T02:21:57;20.40;98.10
17174;DHT22;8702;48.130;-1.696;2022-07-21T02:24:24;20.40;98.10
17174;DHT22;8702;48.130;-1.696;2022-07-21T02:26:51;20.30;98.10
17174;DHT22;8702;48.130;-1.696;2022-07-21T02:29:19;20.40;98.10
17174;DHT22;8702;48.130;-1.696;2022-07-21T02:31:46;20.30;98.00
17174;DHT22;8702;48.130;-1.696;2022-07-21T02:34:13;20.30;98.00
17174;DHT22;8702;48.130;-1.696;2022-07-21T02:36:40;20.20;98.10
17174;DHT22;8702;48.130;-1.696;2022-07-21T02:39:07;20.20;98.10
17174;DHT22;8702;48.130;-1.696;2022-07-21T02:41:34;20.20;98.20
17174;DHT22;8702;48.130;-1.696;2022-07-21T02:44:01;20.20;98.10
17174;DHT22;8702;48.130;-1.696;2022-07-21T02:46:30;20.20;98.10
17174;DHT22;8702;48.130;-1.696;2022-07-21T02:48:57;20.10;98.20
17174;DHT22;8702;48.130;-1.696;2022-07-21T02:51:24;20.10;98.20
17174;DHT22;8702;48.130;-1.696;2022-07-21T02:53:51;20.10;98.10
17174;DHT22;8702;48.130;-1.696;2022-07-21T02:56:17;20.10;98.10
17174;DHT22;8702;48.130;-1.696;2022-07-21T02:58:45;20.00;98.20
17174;DHT22;8702;48.130;-1.696;2022-07-21T03:01:12;20.00;98.30
17174;DHT22;8702;48.130;-1.696;2022-07-21T03:03:41;19.90;98.30
17174;DHT22;8702;48.130;-1.696;2022-07-21T03:06:08;19.90;98.20
17174;DHT22;8702;48.130;-1.696;2022-07-21T03:08:35;20.00;98.20
17174;DHT22;8702;48.130;-1.696;2022-07-21T03:11:02;20.00;98.20
17174;DHT22;8702;48.130;-1.696;2022-07-21T03:13:29;20.00;98.10
17174;DHT22;8702;48.130;-1.696;2022-07-21T03:15:56;19.90;98.20
17174;DHT22;8702;48.130;-1.696;2022-07-21T03:18:23;19.80;98.40
17174;DHT22;8702;48.130;-1.696;2022-07-21T03:20:52;19.80;98.40
17174;DHT22;8702;48.130;-1.696;2022-07-21T03:23:19;19.80;98.50
17174;DHT22;8702;48.130;-1.696;2022-07-21T03:25:46;19.80;98.80
17174;DHT22;8702;48.130;-1.696;2022-07-21T03:28:13;19.90;98.40
17174;DHT22;8702;48.130;-1.696;2022-07-21T03:30:40;19.80;98.40
17174;DHT22;8702;48.130;-1.696;2022-07-21T03:33:07;19.90;98.30
17174;DHT22;8702;48.130;-1.696;2022-07-21T03:35:35;19.90;98.20
17174;DHT22;8702;48.130;-1.696;2022-07-21T03:38:04;19.90;98.30
17174;DHT22;8702;48.130;-1.696;2022-07-21T03:40:33;19.80;98.40
17174;DHT22;8702;48.130;-1.696;2022-07-21T03:43:02;19.70;98.50
17174;DHT22;8702;48.130;-1.696;2022-07-21T03:45:30;19.80;98.50
17174;DHT22;8702;48.130;-1.696;2022-07-21T03:47:58;19.70;98.50
17174;DHT22;8702;48.130;-1.696;2022-07-21T03:50:26;19.70;98.50
17174;DHT22;8702;48.130;-1.696;2022-07-21T03:52:53;19.60;98.60
17174;DHT22;8702;48.130;-1.696;2022-07-21T03:55:22;19.60;98.60
17174;DHT22;8702;48.130;-1.696;2022-07-21T03:57:50;19.60;98.70
17174;DHT22;8702;48.130;-1.696;2022-07-21T04:00:19;19.60;98.60
17174;DHT22;8702;48.130;-1.696;2022-07-21T04:02:47;19.60;98.50
17174;DHT22;8702;48.130;-1.696;2022-07-21T04:05:15;19.60;98.60
17174;DHT22;8702;48.130;-1.696;2022-07-21T04:07:44;19.60;98.70
17174;DHT22;8702;48.130;-1.696;2022-07-21T04:10:13;19.60;98.80
17174;DHT22;8702;48.130;-1.696;2022-07-21T04:12:42;19.60;98.80
17174;DHT22;8702;48.130;-1.696;2022-07-21T04:15:10;19.60;98.80
17174;DHT22;8702;48.130;-1.696;2022-07-21T04:17:38;19.60;98.80
17174;DHT22;8702;48.130;-1.696;2022-07-21T04:20:07;19.50;98.80
17174;DHT22;8702;48.130;-1.696;2022-07-21T04:22:34;19.50;98.80
17174;DHT22;8702;48.130;-1.696;2022-07-21T04:25:02;19.40;98.80
17174;DHT22;8702;48.130;-1.696;2022-07-21T04:27:29;19.40;98.90
17174;DHT22;8702;48.130;-1.696;2022-07-21T04:29:58;19.40;99.00
17174;DHT22;8702;48.130;-1.696;2022-07-21T04:32:25;19.20;99.10
17174;DHT22;8702;48.130;-1.696;2022-07-21T04:34:52;19.30;99.10
17174;DHT22;8702;48.130;-1.696;2022-07-21T04:37:19;19.30;99.10
17174;DHT22;8702;48.130;-1.696;2022-07-21T04:39:46;19.30;99.10
17174;DHT22;8702;48.130;-1.696;2022-07-21T04:42:13;19.10;99.10
17174;DHT22;8702;48.130;-1.696;2022-07-21T04:44:40;19.00;99.30
17174;DHT22;8702;48.130;-1.696;2022-07-21T04:47:08;18.80;99.40
17174;DHT22;8702;48.130;-1.696;2022-07-21T04:49:35;18.70;99.60
17174;DHT22;8702;48.130;-1.696;2022-07-21T04:52:02;18.60;99.70
17174;DHT22;8702;48.130;-1.696;2022-07-21T04:54:29;18.60;99.80
17174;DHT22;8702;48.130;-1.696;2022-07-21T04:56:56;18.60;99.80
17174;DHT22;8702;48.130;-1.696;2022-07-21T04:59:24;18.70;99.90
17174;DHT22;8702;48.130;-1.696;2022-07-21T05:01:52;18.70;99.80
17174;DHT22;8702;48.130;-1.696;2022-07-21T05:04:20;18.70;99.80
17174;DHT22;8702;48.130;-1.696;2022-07-21T05:06:47;18.70;99.90
17174;DHT22;8702;48.130;-1.696;2022-07-21T05:09:14;18.70;99.90
17174;DHT22;8702;48.130;-1.696;2022-07-21T05:11:41;18.60;99.90
17174;DHT22;8702;48.130;-1.696;2022-07-21T05:14:08;18.60;99.90
17174;DHT22;8702;48.130;-1.696;2022-07-21T05:16:35;18.60;99.90
17174;DHT22;8702;48.130;-1.696;2022-07-21T05:19:02;18.60;99.90
17174;DHT22;8702;48.130;-1.696;2022-07-21T05:21:30;18.60;99.90
17174;DHT22;8702;48.130;-1.696;2022-07-21T05:23:57;18.60;99.90
17174;DHT22;8702;48.130;-1.696;2022-07-21T05:26:24;18.60;99.90
17174;DHT22;8702;48.130;-1.696;2022-07-21T05:28:51;18.60;99.90
17174;DHT22;8702;48.130;-1.696;2022-07-21T05:31:18;18.60;99.90
17174;DHT22;8702;48.130;-1.696;2022-07-21T05:33:45;18.40;99.90
17174;DHT22;8702;48.130;-1.696;2022-07-21T05:36:12;18.30;99.90
17174;DHT22;8702;48.130;-1.696;2022-07-21T05:38:40;18.40;99.90
17174;DHT22;8702;48.130;-1.696;2022-07-21T05:41:07;18.40;99.90
17174;DHT22;8702;48.130;-1.696;2022-07-21T05:43:34;18.50;99.90
17174;DHT22;8702;48.130;-1.696;2022-07-21T05:46:01;18.60;99.90
17174;DHT22;8702;48.130;-1.696;2022-07-21T05:48:28;18.50;99.90
17174;DHT22;8702;48.130;-1.696;2022-07-21T05:50:55;18.50;99.90
17174;DHT22;8702;48.130;-1.696;2022-07-21T05:53:22;18.40;99.90
17174;DHT22;8702;48.130;-1.696;2022-07-21T05:55:50;18.40;99.90
17174;DHT22;8702;48.130;-1.696;2022-07-21T05:58:18;18.50;99.90
17174;DHT22;8702;48.130;-1.696;2022-07-21T06:00:48;18.60;99.90
17174;DHT22;8702;48.130;-1.696;2022-07-21T06:03:34;18.60;99.90
17174;DHT22;8702;48.130;-1.696;2022-07-21T06:06:01;18.60;99.90
17174;DHT22;8702;48.130;-1.696;2022-07-21T06:08:28;18.50;99.90
17174;DHT22;8702;48.130;-1.696;2022-07-21T06:10:56;18.60;99.90
17174;DHT22;8702;48.130;-1.696;2022-07-21T06:13:23;18.80;99.90
17174;DHT22;8702;48.130;-1.696;2022-07-21T06:15:50;18.90;99.90
17174;DHT22;8702;48.130;-1.696;2022-07-21T06:18:18;19.00;99.90
17174;DHT22;8702;48.130;-1.696;2022-07-21T06:20:45;18.90;99.80
17174;DHT22;8702;48.130;-1.696;2022-07-21T06:23:12;18.80;99.90
17174;DHT22;8702;48.130;-1.696;2022-07-21T06:25:39;18.90;99.90
17174;DHT22;8702;48.130;-1.696;2022-07-21T06:28:07;19.00;99.90
17174;DHT22;8702;48.130;-1.696;2022-07-21T06:30:34;18.90;99.90
17174;DHT22;8702;48.130;-1.696;2022-07-21T06:33:01;19.00;99.90
17174;DHT22;8702;48.130;-1.696;2022-07-21T06:35:28;19.10;99.90
17174;DHT22;8702;48.130;-1.696;2022-07-21T06:37:55;19.20;99.90
17174;DHT22;8702;48.130;-1.696;2022-07-21T06:40:22;19.30;99.90
17174;DHT22;8702;48.130;-1.696;2022-07-21T06:42:49;19.30;99.70
17174;DHT22;8702;48.130;-1.696;2022-07-21T06:45:18;19.30;99.90
17174;DHT22;8702;48.130;-1.696;2022-07-21T06:47:45;19.20;99.90
17174;DHT22;8702;48.130;-1.696;2022-07-21T06:50:12;19.30;99.90
17174;DHT22;8702;48.130;-1.696;2022-07-21T06:52:39;19.20;99.90
17174;DHT22;8702;48.130;-1.696;2022-07-21T06:55:07;19.30;99.90
17174;DHT22;8702;48.130;-1.696;2022-07-21T06:57:35;19.40;99.90
17174;DHT22;8702;48.130;-1.696;2022-07-21T07:00:04;19.50;99.90
17174;DHT22;8702;48.130;-1.696;2022-07-21T07:02:33;19.60;99.80
17174;DHT22;8702;48.130;-1.696;2022-07-21T07:05:00;19.60;99.70
17174;DHT22;8702;48.130;-1.696;2022-07-21T07:07:27;19.70;99.80
17174;DHT22;8702;48.130;-1.696;2022-07-21T07:09:55;19.70;99.90
17174;DHT22;8702;48.130;-1.696;2022-07-21T07:12:22;19.70;99.70
17174;DHT22;8702;48.130;-1.696;2022-07-21T07:14:49;19.60;99.70
17174;DHT22;8702;48.130;-1.696;2022-07-21T07:17:16;19.80;99.80
17174;DHT22;8702;48.130;-1.696;2022-07-21T07:19:46;19.90;99.70
17174;DHT22;8702;48.130;-1.696;2022-07-21T07:22:13;20.00;99.80
17174;DHT22;8702;48.130;-1.696;2022-07-21T07:24:40;20.00;99.70
17174;DHT22;8702;48.130;-1.696;2022-07-21T07:27:07;20.10;99.70
17174;DHT22;8702;48.130;-1.696;2022-07-21T07:29:34;20.30;99.40
17174;DHT22;8702;48.130;-1.696;2022-07-21T07:32:01;20.40;99.30
17174;DHT22;8702;48.130;-1.696;2022-07-21T07:34:28;20.30;99.10
17174;DHT22;8702;48.130;-1.696;2022-07-21T07:36:56;20.40;99.10
17174;DHT22;8702;48.130;-1.696;2022-07-21T07:39:23;20.50;98.80
17174;DHT22;8702;48.130;-1.696;2022-07-21T07:41:50;20.50;99.00
17174;DHT22;8702;48.130;-1.696;2022-07-21T07:44:17;20.50;98.70
17174;DHT22;8702;48.130;-1.696;2022-07-21T07:46:44;20.50;98.80
17174;DHT22;8702;48.130;-1.696;2022-07-21T07:49:11;20.60;98.70
17174;DHT22;8702;48.130;-1.696;2022-07-21T07:51:38;20.50;98.40
17174;DHT22;8702;48.130;-1.696;2022-07-21T07:54:06;20.60;98.60
17174;DHT22;8702;48.130;-1.696;2022-07-21T07:56:34;20.60;98.40
17174;DHT22;8702;48.130;-1.696;2022-07-21T07:59:00;20.60;98.70
17174;DHT22;8702;48.130;-1.696;2022-07-21T08:01:28;20.80;98.50
17174;DHT22;8702;48.130;-1.696;2022-07-21T08:03:55;21.00;98.20
17174;DHT22;8702;48.130;-1.696;2022-07-21T08:06:22;21.10;98.00
17174;DHT22;8702;48.130;-1.696;2022-07-21T08:08:49;21.30;98.20
17174;DHT22;8702;48.130;-1.696;2022-07-21T08:11:18;21.50;97.80
17174;DHT22;8702;48.130;-1.696;2022-07-21T08:13:45;21.60;97.70
17174;DHT22;8702;48.130;-1.696;2022-07-21T08:16:12;21.70;97.30
17174;DHT22;8702;48.130;-1.696;2022-07-21T08:18:41;21.70;97.30
17174;DHT22;8702;48.130;-1.696;2022-07-21T08:21:08;21.70;97.00
17174;DHT22;8702;48.130;-1.696;2022-07-21T08:23:35;21.80;97.10
17174;DHT22;8702;48.130;-1.696;2022-07-21T08:26:02;21.90;96.70
17174;DHT22;8702;48.130;-1.696;2022-07-21T08:28:30;22.00;96.70
17174;DHT22;8702;48.130;-1.696;2022-07-21T08:30:57;21.90;96.60
17174;DHT22;8702;48.130;-1.696;2022-07-21T08:33:24;21.90;96.50
17174;DHT22;8702;48.130;-1.696;2022-07-21T08:35:51;21.80;96.40
17174;DHT22;8702;48.130;-1.696;2022-07-21T08:38:19;21.80;96.60
17174;DHT22;8702;48.130;-1.696;2022-07-21T08:40:47;22.00;96.40
17174;DHT22;8702;48.130;-1.696;2022-07-21T08:43:14;22.00;95.80
17174;DHT22;8702;48.130;-1.696;2022-07-21T08:45:43;22.00;96.00
17174;DHT22;8702;48.130;-1.696;2022-07-21T08:48:10;22.00;96.30
17174;DHT22;8702;48.130;-1.696;2022-07-21T08:50:40;21.90;95.90
17174;DHT22;8702;48.130;-1.696;2022-07-21T08:53:07;21.80;96.10
17174;DHT22;8702;48.130;-1.696;2022-07-21T08:55:36;21.80;96.30
17174;DHT22;8702;48.130;-1.696;2022-07-21T08:58:04;21.80;96.10
17174;DHT22;8702;48.130;-1.696;2022-07-21T09:00:33;21.70;96.00
17174;DHT22;8702;48.130;-1.696;2022-07-21T09:03:15;21.50;96.30
17174;DHT22;8702;48.130;-1.696;2022-07-21T09:05:44;21.70;96.40
17174;DHT22;8702;48.130;-1.696;2022-07-21T09:08:29;21.80;96.20
17174;DHT22;8702;48.130;-1.696;2022-07-21T09:11:11;21.90;96.20
17174;DHT22;8702;48.130;-1.696;2022-07-21T09:13:38;21.70;96.10
17174;DHT22;8702;48.130;-1.696;2022-07-21T09:16:06;21.70;96.20
17174;DHT22;8702;48.130;-1.696;2022-07-21T09:18:47;21.70;96.10
17174;DHT22;8702;48.130;-1.696;2022-07-21T09:21:16;21.80;95.90
17174;DHT22;8702;48.130;-1.696;2022-07-21T09:23:43;22.00;95.80
17174;DHT22;8702;48.130;-1.696;2022-07-21T09:26:10;21.90;95.70
17174;DHT22;8702;48.130;-1.696;2022-07-21T09:28:37;21.80;95.50
17174;DHT22;8702;48.130;-1.696;2022-07-21T09:31:06;21.70;95.70
17174;DHT22;8702;48.130;-1.696;2022-07-21T09:33:37;21.80;95.80
17174;DHT22;8702;48.130;-1.696;2022-07-21T09:36:05;22.00;95.70
17174;DHT22;8702;48.130;-1.696;2022-07-21T09:38:35;22.10;95.20
17174;DHT22;8702;48.130;-1.696;2022-07-21T09:41:08;22.30;94.90
17174;DHT22;8702;48.130;-1.696;2022-07-21T09:43:39;22.30;94.40
17174;DHT22;8702;48.130;-1.696;2022-07-21T09:46:10;22.40;94.40
17174;DHT22;8702;48.130;-1.696;2022-07-21T09:48:41;22.40;94.20
17174;DHT22;8702;48.130;-1.696;2022-07-21T09:51:23;22.50;94.30
17174;DHT22;8702;48.130;-1.696;2022-07-21T09:53:52;22.50;93.60
17174;DHT22;8702;48.130;-1.696;2022-07-21T09:56:21;22.50;93.90
17174;DHT22;8702;48.130;-1.696;2022-07-21T09:58:50;22.70;93.60
17174;DHT22;8702;48.130;-1.696;2022-07-21T10:01:18;22.60;93.10
17174;DHT22;8702;48.130;-1.696;2022-07-21T10:03:47;22.70;93.40
17174;DHT22;8702;48.130;-1.696;2022-07-21T10:06:16;22.80;93.30
17174;DHT22;8702;48.130;-1.696;2022-07-21T10:08:44;22.70;93.00
17174;DHT22;8702;48.130;-1.696;2022-07-21T10:11:12;22.80;92.90
17174;DHT22;8702;48.130;-1.696;2022-07-21T10:13:39;22.70;92.20
17174;DHT22;8702;48.130;-1.696;2022-07-21T10:16:08;22.80;92.40
17174;DHT22;8702;48.130;-1.696;2022-07-21T10:18:42;22.80;92.30
17174;DHT22;8702;48.130;-1.696;2022-07-21T10:21:25;22.90;91.90
17174;DHT22;8702;48.130;-1.696;2022-07-21T10:23:54;23.00;92.10
17174;DHT22;8702;48.130;-1.696;2022-07-21T10:26:22;22.90;91.80
17174;DHT22;8702;48.130;-1.696;2022-07-21T10:28:49;23.00;91.90
17174;DHT22;8702;48.130;-1.696;2022-07-21T10:31:18;23.10;91.70
17174;DHT22;8702;48.130;-1.696;2022-07-21T10:33:57;23.00;91.20
17174;DHT22;8702;48.130;-1.696;2022-07-21T10:36:44;23.10;91.90
17174;DHT22;8702;48.130;-1.696;2022-07-21T10:39:23;23.10;91.60
17174;DHT22;8702;48.130;-1.696;2022-07-21T10:41:52;23.20;91.00
17174;DHT22;8702;48.130;-1.696;2022-07-21T10:44:38;23.20;91.30
17174;DHT22;8702;48.130;-1.696;2022-07-21T10:47:06;23.30;91.30
17174;DHT22;8702;48.130;-1.696;2022-07-21T10:49:45;23.50;91.40
17174;DHT22;8702;48.130;-1.696;2022-07-21T10:55:19;23.80;91.10
17174;DHT22;8702;48.130;-1.696;2022-07-21T10:58:24;23.90;90.50
17174;DHT22;8702;48.130;-1.696;2022-07-21T11:00:52;24.00;90.70
17174;DHT22;8702;48.130;-1.696;2022-07-21T11:03:22;24.00;90.60
17174;DHT22;8702;48.130;-1.696;2022-07-21T11:06:13;24.00;90.20
17174;DHT22;8702;48.130;-1.696;2022-07-21T11:08:43;24.10;90.30
17174;DHT22;8702;48.130;-1.696;2022-07-21T11:11:13;24.20;89.90
17174;DHT22;8702;48.130;-1.696;2022-07-21T11:14:01;24.20;90.30
17174;DHT22;8702;48.130;-1.696;2022-07-21T11:19:40;24.20;89.40
17174;DHT22;8702;48.130;-1.696;2022-07-21T11:22:10;24.30;89.20
17174;DHT22;8702;48.130;-1.696;2022-07-21T11:24:38;24.00;89.00
17174;DHT22;8702;48.130;-1.696;2022-07-21T11:27:09;24.00;89.10
17174;DHT22;8702;48.130;-1.696;2022-07-21T11:29:38;24.00;89.50
17174;DHT22;8702;48.130;-1.696;2022-07-21T11:32:06;24.10;89.10
17174;DHT22;8702;48.130;-1.696;2022-07-21T11:34:39;24.00;88.30
17174;DHT22;8702;48.130;-1.696;2022-07-21T11:37:07;23.70;88.30
17174;DHT22;8702;48.130;-1.696;2022-07-21T11:39:35;23.70;88.70
17174;DHT22;8702;48.130;-1.696;2022-07-21T11:42:03;23.80;88.50
17174;DHT22;8702;48.130;-1.696;2022-07-21T11:44:32;23.90;88.80
17174;DHT22;8702;48.130;-1.696;2022-07-21T11:47:01;23.80;88.70
17174;DHT22;8702;48.130;-1.696;2022-07-21T11:49:29;23.90;88.90
17174;DHT22;8702;48.130;-1.696;2022-07-21T11:51:58;24.00;88.90
17174;DHT22;8702;48.130;-1.696;2022-07-21T11:54:29;24.00;88.00
17174;DHT22;8702;48.130;-1.696;2022-07-21T11:56:58;24.10;88.20
17174;DHT22;8702;48.130;-1.696;2022-07-21T11:59:26;24.00;87.40
17174;DHT22;8702;48.130;-1.696;2022-07-21T12:01:58;23.80;87.30
17174;DHT22;8702;48.130;-1.696;2022-07-21T12:04:37;23.90;88.30
17174;DHT22;8702;48.130;-1.696;2022-07-21T12:07:06;23.90;86.60
17174;DHT22;8702;48.130;-1.696;2022-07-21T12:09:34;23.90;87.90
17174;DHT22;8702;48.130;-1.696;2022-07-21T12:12:01;24.20;88.10
17174;DHT22;8702;48.130;-1.696;2022-07-21T12:14:45;24.40;87.50
17174;DHT22;8702;48.130;-1.696;2022-07-21T12:17:15;24.60;87.40
17174;DHT22;8702;48.130;-1.696;2022-07-21T12:19:44;24.60;85.50
17174;DHT22;8702;48.130;-1.696;2022-07-21T12:22:11;24.60;86.20
17174;DHT22;8702;48.130;-1.696;2022-07-21T12:24:53;24.50;86.00
17174;DHT22;8702;48.130;-1.696;2022-07-21T12:27:23;24.50;85.30
17174;DHT22;8702;48.130;-1.696;2022-07-21T12:29:50;24.60;85.80
17174;DHT22;8702;48.130;-1.696;2022-07-21T12:32:43;24.80;86.40
17174;DHT22;8702;48.130;-1.696;2022-07-21T12:35:20;25.00;85.80
17174;DHT22;8702;48.130;-1.696;2022-07-21T12:38:09;24.90;84.60
17174;DHT22;8702;48.130;-1.696;2022-07-21T12:40:38;24.70;83.60
17174;DHT22;8702;48.130;-1.696;2022-07-21T12:43:08;24.40;84.20
17174;DHT22;8702;48.130;-1.696;2022-07-21T12:45:50;24.40;84.70
17174;DHT22;8702;48.130;-1.696;2022-07-21T12:48:20;24.60;85.00
17174;DHT22;8702;48.130;-1.696;2022-07-21T12:51:09;24.80;84.90
17174;DHT22;8702;48.130;-1.696;2022-07-21T12:53:40;25.00;84.30
17174;DHT22;8702;48.130;-1.696;2022-07-21T12:56:08;24.70;82.90
17174;DHT22;8702;48.130;-1.696;2022-07-21T12:58:35;24.70;84.40
17174;DHT22;8702;48.130;-1.696;2022-07-21T13:01:03;24.90;84.40
17174;DHT22;8702;48.130;-1.696;2022-07-21T13:03:33;24.90;82.60
17174;DHT22;8702;48.130;-1.696;2022-07-21T13:06:03;24.80;83.10
17174;DHT22;8702;48.130;-1.696;2022-07-21T13:08:30;24.90;83.20
17174;DHT22;8702;48.130;-1.696;2022-07-21T13:10:58;25.00;83.50
17174;DHT22;8702;48.130;-1.696;2022-07-21T13:13:25;25.10;83.20
17174;DHT22;8702;48.130;-1.696;2022-07-21T13:15:53;25.30;82.80
17174;DHT22;8702;48.130;-1.696;2022-07-21T13:18:20;25.40;82.30
17174;DHT22;8702;48.130;-1.696;2022-07-21T13:20:50;25.40;82.90
17174;DHT22;8702;48.130;-1.696;2022-07-21T13:23:18;25.50;81.10
17174;DHT22;8702;48.130;-1.696;2022-07-21T13:25:45;25.40;80.90
17174;DHT22;8702;48.130;-1.696;2022-07-21T13:28:14;25.40;81.30
17174;DHT22;8702;48.130;-1.696;2022-07-21T13:30:41;25.40;80.80
17174;DHT22;8702;48.130;-1.696;2022-07-21T13:33:08;25.40;81.30
17174;DHT22;8702;48.130;-1.696;2022-07-21T13:35:35;25.40;80.70
17174;DHT22;8702;48.130;-1.696;2022-07-21T13:38:04;25.40;81.10
17174;DHT22;8702;48.130;-1.696;2022-07-21T13:40:31;25.50;80.70
17174;DHT22;8702;48.130;-1.696;2022-07-21T13:42:58;25.60;81.40
17174;DHT22;8702;48.130;-1.696;2022-07-21T13:45:25;25.80;81.30
17174;DHT22;8702;48.130;-1.696;2022-07-21T13:47:52;25.90;80.20
17174;DHT22;8702;48.130;-1.696;2022-07-21T13:50:19;26.00;80.30
17174;DHT22;8702;48.130;-1.696;2022-07-21T13:52:46;26.10;79.90
17174;DHT22;8702;48.130;-1.696;2022-07-21T13:55:14;26.10;80.50
17174;DHT22;8702;48.130;-1.696;2022-07-21T13:57:41;26.20;80.20
17174;DHT22;8702;48.130;-1.696;2022-07-21T14:00:11;26.20;79.60
17174;DHT22;8702;48.130;-1.696;2022-07-21T14:02:39;26.30;79.90
17174;DHT22;8702;48.130;-1.696;2022-07-21T14:05:07;26.20;80.00
17174;DHT22;8702;48.130;-1.696;2022-07-21T14:07:34;26.20;79.60
17174;DHT22;8702;48.130;-1.696;2022-07-21T14:10:01;26.20;79.20
17174;DHT22;8702;48.130;-1.696;2022-07-21T14:12:29;26.30;79.40
17174;DHT22;8702;48.130;-1.696;2022-07-21T14:14:56;26.40;79.00
17174;DHT22;8702;48.130;-1.696;2022-07-21T14:17:23;26.40;79.30
17174;DHT22;8702;48.130;-1.696;2022-07-21T14:19:50;26.50;78.50
17174;DHT22;8702;48.130;-1.696;2022-07-21T14:22:17;26.50;78.80
17174;DHT22;8702;48.130;-1.696;2022-07-21T14:24:47;26.80;78.50
17174;DHT22;8702;48.130;-1.696;2022-07-21T14:27:32;26.90;77.60
17174;DHT22;8702;48.130;-1.696;2022-07-21T14:29:59;27.00;77.80
17174;DHT22;8702;48.130;-1.696;2022-07-21T14:32:26;27.20;76.70
17174;DHT22;8702;48.130;-1.696;2022-07-21T14:34:54;27.20;76.60
17174;DHT22;8702;48.130;-1.696;2022-07-21T14:37:21;27.40;77.40
17174;DHT22;8702;48.130;-1.696;2022-07-21T14:39:49;27.70;77.40
17174;DHT22;8702;48.130;-1.696;2022-07-21T14:42:17;28.00;76.90
17174;DHT22;8702;48.130;-1.696;2022-07-21T14:44:45;28.20;75.70
17174;DHT22;8702;48.130;-1.696;2022-07-21T14:47:12;28.50;75.80
17174;DHT22;8702;48.130;-1.696;2022-07-21T14:49:39;28.70;75.80
17174;DHT22;8702;48.130;-1.696;2022-07-21T14:52:07;28.90;74.30
17174;DHT22;8702;48.130;-1.696;2022-07-21T14:54:35;29.10;74.60
17174;DHT22;8702;48.130;-1.696;2022-07-21T14:57:02;29.20;73.00
17174;DHT22;8702;48.130;-1.696;2022-07-21T14:59:30;29.30;73.70
17174;DHT22;8702;48.130;-1.696;2022-07-21T15:01:59;29.60;71.70
17174;DHT22;8702;48.130;-1.696;2022-07-21T15:04:26;29.70;72.20
17174;DHT22;8702;48.130;-1.696;2022-07-21T15:06:53;29.90;72.80
17174;DHT22;8702;48.130;-1.696;2022-07-21T15:09:20;30.10;72.30
17174;DHT22;8702;48.130;-1.696;2022-07-21T15:11:47;30.20;71.20
17174;DHT22;8702;48.130;-1.696;2022-07-21T15:14:14;30.40;71.50
17174;DHT22;8702;48.130;-1.696;2022-07-21T15:16:41;30.70;72.30
17174;DHT22;8702;48.130;-1.696;2022-07-21T15:19:10;30.90;70.60
17174;DHT22;8702;48.130;-1.696;2022-07-21T15:21:37;30.90;69.10
17174;DHT22;8702;48.130;-1.696;2022-07-21T15:24:04;30.80;69.70
17174;DHT22;8702;48.130;-1.696;2022-07-21T15:26:32;30.90;70.20
17174;DHT22;8702;48.130;-1.696;2022-07-21T15:28:59;31.00;69.80
17174;DHT22;8702;48.130;-1.696;2022-07-21T15:31:26;31.20;68.90
17174;DHT22;8702;48.130;-1.696;2022-07-21T15:33:53;31.00;68.80
17174;DHT22;8702;48.130;-1.696;2022-07-21T15:36:21;31.40;69.50
17174;DHT22;8702;48.130;-1.696;2022-07-21T15:38:48;31.80;68.90
17174;DHT22;8702;48.130;-1.696;2022-07-21T15:41:15;32.00;68.30
17174;DHT22;8702;48.130;-1.696;2022-07-21T15:43:43;32.30;68.00
17174;DHT22;8702;48.130;-1.696;2022-07-21T15:46:10;32.50;68.10